AAA93 YPAD-YBAS
Flight info
| Callsign | AAA93 |
|---|---|
| Flight time | N/A |
| Altitude | 30000 |
| Route | AD A585 AREPA J58 WHA J251 AS |
| Aircraft | F28/M-SDFIRWY/H |
Departure
| Time | 2026-05-04 00:52 |
|---|---|
| Airport | Adelaide International Airport (YPAD) |
Arrival
| Time | N/A |
|---|---|
| Airport | Alice Springs Airport (YBAS) |
| Time | Latitude | Longitude | Altitude | Speed | Heading |
|---|---|---|---|---|---|
| 2026-05-04 00:25 | -34.94036 | 138.53702 | 21 ft | 0 kts | 315° |
| 2026-05-04 00:32 | -34.94047 | 138.53714 | 22 ft | 2 kts | 317° |
| 2026-05-04 00:32 | -34.94059 | 138.53727 | 24 ft | 2 kts | 319° |
| 2026-05-04 00:32 | -34.94072 | 138.53740 | 22 ft | 2 kts | 324° |
| 2026-05-04 00:32 | -34.94086 | 138.53750 | 21 ft | 2 kts | 335° |
| 2026-05-04 00:33 | -34.94102 | 138.53753 | 20 ft | 2 kts | 12° |
| 2026-05-04 00:33 | -34.94110 | 138.53748 | 19 ft | 0 kts | 39° |
| 2026-05-04 00:37 | -34.94098 | 138.53761 | 20 ft | 2 kts | 42° |
| 2026-05-04 00:37 | -34.94089 | 138.53772 | 22 ft | 1 kts | 43° |
| 2026-05-04 00:37 | -34.94079 | 138.53785 | 20 ft | 5 kts | 52° |
| 2026-05-04 00:37 | -34.94062 | 138.53818 | 18 ft | 5 kts | 58° |
| 2026-05-04 00:38 | -34.94043 | 138.53848 | 20 ft | 5 kts | 48° |
| 2026-05-04 00:38 | -34.94017 | 138.53882 | 18 ft | 6 kts | 46° |
| 2026-05-04 00:38 | -34.93998 | 138.53909 | 20 ft | 3 kts | 56° |
| 2026-05-04 00:38 | -34.93985 | 138.53931 | 20 ft | 3 kts | 51° |
| 2026-05-04 00:39 | -34.93970 | 138.53951 | 21 ft | 3 kts | 45° |
| 2026-05-04 00:39 | -34.93952 | 138.53973 | 21 ft | 4 kts | 47° |
| 2026-05-04 00:39 | -34.93932 | 138.54002 | 20 ft | 5 kts | 53° |
| 2026-05-04 00:39 | -34.93908 | 138.54038 | 19 ft | 6 kts | 52° |
| 2026-05-04 00:40 | -34.93878 | 138.54092 | 18 ft | 8 kts | 59° |
| 2026-05-04 00:40 | -34.93868 | 138.54119 | 18 ft | 1 kts | 114° |
| 2026-05-04 00:40 | -34.93880 | 138.54130 | 17 ft | 5 kts | 148° |
| 2026-05-04 00:40 | -34.93918 | 138.54162 | 17 ft | 9 kts | 141° |
| 2026-05-04 00:41 | -34.93972 | 138.54218 | 19 ft | 11 kts | 140° |
| 2026-05-04 00:41 | -34.93992 | 138.54238 | 21 ft | 0 kts | 139° |
| 2026-05-04 00:41 | -34.94015 | 138.54262 | 19 ft | 8 kts | 140° |
| 2026-05-04 00:42 | -34.94059 | 138.54294 | 18 ft | 2 kts | 185° |
| 2026-05-04 00:42 | -34.94061 | 138.54285 | 18 ft | 2 kts | 288° |
| 2026-05-04 00:42 | -34.93970 | 138.54214 | 19 ft | 25 kts | 325° |
| 2026-05-04 00:42 | -34.93835 | 138.54154 | 17 ft | 17 kts | 35° |
| 2026-05-04 00:43 | -34.93764 | 138.54202 | 19 ft | 0 kts | 25° |
| 2026-05-04 00:50 | -34.93760 | 138.54197 | 19 ft | 1 kts | 274° |
| 2026-05-04 00:50 | -34.93784 | 138.54183 | 17 ft | 13 kts | 200° |
| 2026-05-04 00:50 | -34.93866 | 138.54133 | 17 ft | 11 kts | 184° |
| 2026-05-04 00:51 | -34.93944 | 138.54194 | 17 ft | 16 kts | 138° |
| 2026-05-04 00:51 | -34.94025 | 138.54266 | 20 ft | 10 kts | 150° |
| 2026-05-04 00:51 | -34.94086 | 138.54273 | 20 ft | 14 kts | 204° |
| 2026-05-04 00:51 | -34.94279 | 138.54008 | 21 ft | 75 kts | 230° |
| 2026-05-04 00:52 | -34.94780 | 138.53275 | 103 ft | 140 kts | 231° |
| 2026-05-04 00:52 | -34.95436 | 138.52315 | 790 ft | 161 kts | 235° |
| 2026-05-04 00:52 | -34.95880 | 138.50998 | 1845 ft | 172 kts | 253° |
| 2026-05-04 00:52 | -34.96183 | 138.49557 | 3138 ft | 182 kts | 257° |
| 2026-05-04 00:53 | -34.96433 | 138.47899 | 3816 ft | 218 kts | 258° |
| 2026-05-04 00:53 | -34.96594 | 138.46020 | 4479 ft | 223 kts | 275° |
| 2026-05-04 00:53 | -34.96020 | 138.44293 | 5505 ft | 226 kts | 300° |
| 2026-05-04 00:53 | -34.94865 | 138.42927 | 6219 ft | 239 kts | 320° |
| 2026-05-04 00:54 | -34.93372 | 138.41963 | 6589 ft | 253 kts | 329° |
| 2026-05-04 00:54 | -34.91724 | 138.41076 | 6923 ft | 265 kts | 332° |
| 2026-05-04 00:54 | -34.89966 | 138.40225 | 7286 ft | 277 kts | 334° |
| 2026-05-04 00:54 | -34.88129 | 138.39334 | 7682 ft | 288 kts | 329° |
| 2026-05-04 00:55 | -34.86612 | 138.37795 | 8358 ft | 278 kts | 302° |
| 2026-05-04 00:55 | -34.85609 | 138.35904 | 9474 ft | 265 kts | 297° |
| 2026-05-04 00:55 | -34.84646 | 138.34051 | 10034 ft | 270 kts | 299° |
| 2026-05-04 00:55 | -34.83602 | 138.32138 | 10648 ft | 273 kts | 299° |
| 2026-05-04 00:56 | -34.82538 | 138.30206 | 11231 ft | 278 kts | 300° |
| 2026-05-04 00:56 | -34.81434 | 138.28209 | 11579 ft | 290 kts | 300° |
| 2026-05-04 00:56 | -34.80288 | 138.26159 | 11948 ft | 301 kts | 300° |
| 2026-05-04 00:56 | -34.79094 | 138.23997 | 12329 ft | 312 kts | 300° |
| 2026-05-04 00:57 | -34.77850 | 138.21770 | 12705 ft | 323 kts | 300° |
| 2026-05-04 00:57 | -34.76571 | 138.19492 | 13254 ft | 327 kts | 300° |
| 2026-05-04 00:57 | -34.75284 | 138.17198 | 13858 ft | 330 kts | 300° |
| 2026-05-04 00:57 | -34.73983 | 138.14886 | 14379 ft | 332 kts | 300° |
| 2026-05-04 00:58 | -34.72686 | 138.12585 | 14899 ft | 335 kts | 299° |
| 2026-05-04 00:58 | -34.71375 | 138.10232 | 15411 ft | 337 kts | 299° |
| 2026-05-04 00:58 | -34.70053 | 138.07856 | 15927 ft | 339 kts | 298° |
| 2026-05-04 00:58 | -34.68721 | 138.05468 | 16433 ft | 342 kts | 298° |
| 2026-05-04 00:59 | -34.67377 | 138.03072 | 16926 ft | 344 kts | 298° |
| 2026-05-04 00:59 | -34.66020 | 138.00664 | 17368 ft | 347 kts | 298° |
| 2026-05-04 00:59 | -34.64677 | 137.98249 | 17810 ft | 350 kts | 298° |
| 2026-05-04 00:59 | -34.63316 | 137.95781 | 18286 ft | 352 kts | 297° |
| 2026-05-04 01:00 | -34.61947 | 137.93299 | 18672 ft | 355 kts | 298° |
| 2026-05-04 01:00 | -34.60563 | 137.90807 | 19089 ft | 356 kts | 298° |
| 2026-05-04 01:00 | -34.59142 | 137.88334 | 19485 ft | 359 kts | 301° |
| 2026-05-04 01:00 | -34.57300 | 137.86263 | 19844 ft | 377 kts | 321° |
| 2026-05-04 01:01 | -34.54857 | 137.84935 | 20210 ft | 390 kts | 334° |
| 2026-05-04 01:01 | -34.52211 | 137.84028 | 20552 ft | 396 kts | 340° |
| 2026-05-04 01:01 | -34.49498 | 137.83324 | 20894 ft | 400 kts | 342° |
| 2026-05-04 01:01 | -34.46771 | 137.82728 | 21217 ft | 404 kts | 343° |
| 2026-05-04 01:02 | -34.43981 | 137.82166 | 21536 ft | 406 kts | 344° |
| 2026-05-04 01:02 | -34.41185 | 137.81601 | 21844 ft | 408 kts | 344° |
| 2026-05-04 01:02 | -34.38363 | 137.81027 | 22146 ft | 410 kts | 343° |
| 2026-05-04 01:02 | -34.35577 | 137.80433 | 22432 ft | 411 kts | 343° |
| 2026-05-04 01:03 | -34.32736 | 137.79813 | 22588 ft | 416 kts | 343° |
| 2026-05-04 01:03 | -34.29883 | 137.79193 | 22918 ft | 417 kts | 343° |
| 2026-05-04 01:03 | -34.27025 | 137.78552 | 23201 ft | 418 kts | 343° |
| 2026-05-04 01:03 | -34.24159 | 137.77905 | 23491 ft | 419 kts | 343° |
| 2026-05-04 01:04 | -34.21287 | 137.77271 | 23750 ft | 420 kts | 343° |
| 2026-05-04 01:04 | -34.18399 | 137.76639 | 23978 ft | 422 kts | 343° |
| 2026-05-04 01:04 | -34.15545 | 137.76015 | 24197 ft | 423 kts | 343° |
| 2026-05-04 01:04 | -34.12643 | 137.75381 | 24412 ft | 424 kts | 343° |
| 2026-05-04 01:05 | -34.09726 | 137.74737 | 24623 ft | 425 kts | 343° |
| 2026-05-04 01:05 | -34.06808 | 137.74098 | 24833 ft | 426 kts | 343° |
| 2026-05-04 01:05 | -34.03892 | 137.73458 | 25035 ft | 427 kts | 344° |
| 2026-05-04 01:05 | -34.00954 | 137.72832 | 25251 ft | 427 kts | 344° |
| 2026-05-04 01:06 | -33.98056 | 137.72223 | 25463 ft | 428 kts | 344° |
| 2026-05-04 01:06 | -33.95126 | 137.71581 | 25680 ft | 428 kts | 343° |
| 2026-05-04 01:06 | -33.92198 | 137.70933 | 25897 ft | 428 kts | 344° |
| 2026-05-04 01:06 | -33.89261 | 137.70309 | 26123 ft | 428 kts | 344° |
| 2026-05-04 01:07 | -33.86318 | 137.69672 | 26339 ft | 428 kts | 344° |
| 2026-05-04 01:07 | -33.83392 | 137.69027 | 26535 ft | 428 kts | 344° |
| 2026-05-04 01:07 | -33.80454 | 137.68390 | 26752 ft | 428 kts | 344° |
| 2026-05-04 01:07 | -33.77521 | 137.67758 | 26972 ft | 428 kts | 344° |
| 2026-05-04 01:08 | -33.74630 | 137.67137 | 27169 ft | 427 kts | 344° |
| 2026-05-04 01:08 | -33.71699 | 137.66507 | 27374 ft | 427 kts | 344° |
| 2026-05-04 01:08 | -33.68770 | 137.65879 | 27588 ft | 427 kts | 344° |
| 2026-05-04 01:08 | -33.65843 | 137.65251 | 27853 ft | 425 kts | 344° |
| 2026-05-04 01:09 | -33.62939 | 137.64629 | 28182 ft | 421 kts | 344° |
| 2026-05-04 01:09 | -33.60070 | 137.64012 | 28547 ft | 417 kts | 345° |
| 2026-05-04 01:09 | -33.57274 | 137.63402 | 28930 ft | 412 kts | 344° |
| 2026-05-04 01:09 | -33.54425 | 137.62782 | 29299 ft | 408 kts | 344° |
| 2026-05-04 01:10 | -33.51651 | 137.62180 | 29638 ft | 404 kts | 344° |
| 2026-05-04 01:10 | -33.48922 | 137.61588 | 29968 ft | 401 kts | 344° |
| 2026-05-04 01:10 | -33.46161 | 137.60987 | 30089 ft | 404 kts | 344° |
| 2026-05-04 01:11 | -33.40572 | 137.59763 | 30097 ft | 413 kts | 345° |
| 2026-05-04 01:11 | -33.34854 | 137.58537 | 30120 ft | 421 kts | 345° |
| 2026-05-04 01:12 | -33.29067 | 137.57302 | 30129 ft | 428 kts | 346° |
| 2026-05-04 01:12 | -33.23146 | 137.56047 | 30132 ft | 435 kts | 345° |
| 2026-05-04 01:13 | -33.17127 | 137.54774 | 30119 ft | 441 kts | 346° |
| 2026-05-04 01:13 | -33.11047 | 137.53473 | 30131 ft | 445 kts | 346° |
| 2026-05-04 01:14 | -33.04972 | 137.52058 | 30136 ft | 448 kts | 342° |
| 2026-05-04 01:14 | -32.99109 | 137.49965 | 30132 ft | 428 kts | 338° |
| 2026-05-04 01:15 | -32.93602 | 137.47750 | 30114 ft | 412 kts | 338° |
| 2026-05-04 01:15 | -32.88224 | 137.45643 | 30123 ft | 400 kts | 339° |
| 2026-05-04 01:16 | -32.82993 | 137.43667 | 30130 ft | 389 kts | 338° |
| 2026-05-04 01:16 | -32.77928 | 137.41722 | 30134 ft | 380 kts | 339° |
| 2026-05-04 01:17 | -32.72933 | 137.39814 | 30121 ft | 376 kts | 338° |
| 2026-05-04 01:17 | -32.67867 | 137.37878 | 30139 ft | 388 kts | 339° |
| 2026-05-04 01:18 | -32.62628 | 137.35914 | 30156 ft | 399 kts | 339° |
| 2026-05-04 01:18 | -32.57306 | 137.33905 | 30161 ft | 407 kts | 339° |
| 2026-05-04 01:19 | -32.51882 | 137.31842 | 30158 ft | 410 kts | 339° |
| 2026-05-04 01:19 | -32.47340 | 137.30124 | 30149 ft | 413 kts | 339° |
| 2026-05-04 01:20 | -32.41817 | 137.28076 | 30154 ft | 416 kts | 339° |
| 2026-05-04 01:20 | -32.36308 | 137.25993 | 30158 ft | 418 kts | 339° |
| 2026-05-04 01:21 | -32.30774 | 137.23919 | 30154 ft | 416 kts | 339° |
| 2026-05-04 01:21 | -32.25292 | 137.21864 | 30155 ft | 415 kts | 339° |
| 2026-05-04 01:22 | -32.19791 | 137.19790 | 30160 ft | 413 kts | 339° |
| 2026-05-04 01:22 | -32.14303 | 137.17757 | 30158 ft | 412 kts | 339° |
| 2026-05-04 01:23 | -32.08878 | 137.15717 | 30158 ft | 411 kts | 339° |
| 2026-05-04 01:23 | -32.03678 | 137.13777 | 30162 ft | 410 kts | 339° |
| 2026-05-04 01:24 | -31.98224 | 137.11752 | 30162 ft | 409 kts | 339° |
| 2026-05-04 01:24 | -31.92810 | 137.09737 | 30166 ft | 409 kts | 340° |
| 2026-05-04 01:25 | -31.87380 | 137.07713 | 30166 ft | 408 kts | 339° |
| 2026-05-04 01:25 | -31.81957 | 137.05700 | 30167 ft | 408 kts | 339° |
| 2026-05-04 01:26 | -31.76578 | 137.03711 | 30162 ft | 407 kts | 339° |
| 2026-05-04 01:26 | -31.71176 | 137.01680 | 30173 ft | 407 kts | 339° |
| 2026-05-04 01:27 | -31.65804 | 136.99711 | 30173 ft | 406 kts | 339° |
| 2026-05-04 01:27 | -31.60415 | 136.97718 | 30172 ft | 406 kts | 339° |
| 2026-05-04 01:28 | -31.55018 | 136.95716 | 30172 ft | 405 kts | 339° |
| 2026-05-04 01:28 | -31.49635 | 136.93730 | 30173 ft | 404 kts | 339° |
| 2026-05-04 01:29 | -31.44300 | 136.91757 | 30183 ft | 404 kts | 339° |
| 2026-05-04 01:29 | -31.38930 | 136.89770 | 30180 ft | 403 kts | 339° |
| 2026-05-04 01:30 | -31.33608 | 136.87801 | 30179 ft | 403 kts | 339° |
| 2026-05-04 01:30 | -31.28260 | 136.85829 | 30175 ft | 402 kts | 338° |
| 2026-05-04 01:31 | -31.22902 | 136.83899 | 30190 ft | 401 kts | 339° |
| 2026-05-04 01:31 | -31.17600 | 136.81995 | 30182 ft | 401 kts | 338° |
| 2026-05-04 01:32 | -31.12276 | 136.79979 | 30182 ft | 399 kts | 337° |
| 2026-05-04 01:32 | -31.07053 | 136.77896 | 30180 ft | 398 kts | 336° |
| 2026-05-04 01:33 | -31.01804 | 136.75813 | 30179 ft | 397 kts | 336° |
| 2026-05-04 01:33 | -30.96596 | 136.73771 | 30185 ft | 396 kts | 336° |
| 2026-05-04 01:34 | -30.91372 | 136.71729 | 30187 ft | 395 kts | 336° |
| 2026-05-04 01:34 | -30.86162 | 136.69671 | 30186 ft | 394 kts | 336° |
| 2026-05-04 01:35 | -30.80971 | 136.67632 | 30178 ft | 393 kts | 336° |
| 2026-05-04 01:35 | -30.75834 | 136.65592 | 30189 ft | 391 kts | 335° |
| 2026-05-04 01:36 | -30.70685 | 136.63532 | 30195 ft | 390 kts | 336° |
| 2026-05-04 01:36 | -30.65531 | 136.61527 | 30193 ft | 390 kts | 336° |
| 2026-05-04 01:37 | -30.60393 | 136.59506 | 30188 ft | 389 kts | 336° |
| 2026-05-04 01:37 | -30.55295 | 136.57511 | 30178 ft | 387 kts | 335° |
| 2026-05-04 01:38 | -30.50196 | 136.55505 | 30195 ft | 386 kts | 335° |
| 2026-05-04 01:38 | -30.45112 | 136.53496 | 30192 ft | 385 kts | 335° |
| 2026-05-04 01:39 | -30.40026 | 136.51511 | 30199 ft | 385 kts | 335° |
| 2026-05-04 01:39 | -30.34969 | 136.49539 | 30200 ft | 384 kts | 335° |
| 2026-05-04 01:40 | -30.29904 | 136.47574 | 30187 ft | 383 kts | 335° |
| 2026-05-04 01:40 | -30.24883 | 136.45626 | 30199 ft | 381 kts | 335° |
| 2026-05-04 01:41 | -30.19845 | 136.43668 | 30199 ft | 380 kts | 335° |
| 2026-05-04 01:41 | -30.14838 | 136.41724 | 30198 ft | 380 kts | 335° |
| 2026-05-04 01:42 | -30.09823 | 136.39776 | 30200 ft | 379 kts | 335° |
| 2026-05-04 01:42 | -30.04850 | 136.37845 | 30194 ft | 378 kts | 335° |
| 2026-05-04 01:43 | -29.99854 | 136.35906 | 30194 ft | 377 kts | 335° |
| 2026-05-04 01:43 | -29.94908 | 136.33980 | 30200 ft | 377 kts | 335° |
| 2026-05-04 01:44 | -29.89939 | 136.32045 | 30203 ft | 376 kts | 335° |
| 2026-05-04 01:44 | -29.84959 | 136.30131 | 30203 ft | 376 kts | 335° |
| 2026-05-04 01:45 | -29.80027 | 136.28227 | 30209 ft | 376 kts | 335° |
| 2026-05-04 01:45 | -29.72575 | 136.25362 | 30206 ft | 376 kts | 335° |
| 2026-05-04 01:46 | -29.67828 | 136.23546 | 30207 ft | 376 kts | 335° |
| 2026-05-04 01:46 | -29.62862 | 136.21659 | 30206 ft | 375 kts | 335° |
| 2026-05-04 01:47 | -29.57902 | 136.19766 | 30190 ft | 375 kts | 335° |
| 2026-05-04 01:47 | -29.52980 | 136.17895 | 30206 ft | 375 kts | 335° |
| 2026-05-04 01:48 | -29.48029 | 136.16019 | 30209 ft | 374 kts | 336° |
| 2026-05-04 01:48 | -29.43077 | 136.14143 | 30210 ft | 374 kts | 335° |
| 2026-05-04 01:49 | -29.38246 | 136.12311 | 30214 ft | 374 kts | 335° |
| 2026-05-04 01:49 | -29.33329 | 136.10448 | 30189 ft | 374 kts | 335° |
| 2026-05-04 01:50 | -29.28378 | 136.08564 | 30213 ft | 374 kts | 335° |
| 2026-05-04 01:50 | -29.23465 | 136.06707 | 30217 ft | 373 kts | 335° |
| 2026-05-04 01:51 | -29.18527 | 136.04839 | 30211 ft | 373 kts | 335° |
| 2026-05-04 01:51 | -29.13584 | 136.02971 | 30214 ft | 373 kts | 335° |
| 2026-05-04 01:52 | -29.08675 | 136.01122 | 30207 ft | 373 kts | 335° |
| 2026-05-04 01:52 | -29.03735 | 135.99256 | 30216 ft | 373 kts | 335° |
| 2026-05-04 01:53 | -28.98803 | 135.97403 | 30218 ft | 373 kts | 335° |
| 2026-05-04 01:53 | -28.93898 | 135.95560 | 30219 ft | 373 kts | 335° |
| 2026-05-04 01:54 | -28.88956 | 135.93707 | 30222 ft | 373 kts | 335° |
| 2026-05-04 01:54 | -28.84040 | 135.91861 | 30199 ft | 373 kts | 335° |
| 2026-05-04 01:55 | -28.79105 | 135.90002 | 30216 ft | 373 kts | 335° |
| 2026-05-04 01:55 | -28.74170 | 135.88157 | 30219 ft | 373 kts | 335° |
| 2026-05-04 01:56 | -28.69272 | 135.86326 | 30223 ft | 373 kts | 335° |
| 2026-05-04 01:56 | -28.64332 | 135.84481 | 30224 ft | 373 kts | 335° |
| 2026-05-04 01:57 | -28.59394 | 135.82635 | 30206 ft | 373 kts | 335° |
| 2026-05-04 01:57 | -28.54481 | 135.80807 | 30225 ft | 373 kts | 335° |
| 2026-05-04 01:58 | -28.49538 | 135.78964 | 30226 ft | 373 kts | 335° |
| 2026-05-04 01:58 | -28.44586 | 135.77123 | 30220 ft | 373 kts | 335° |
| 2026-05-04 01:59 | -28.39676 | 135.75295 | 30224 ft | 373 kts | 335° |
| 2026-05-04 01:59 | -28.34729 | 135.73458 | 30224 ft | 373 kts | 335° |
| 2026-05-04 02:00 | -28.29783 | 135.71621 | 30222 ft | 373 kts | 335° |
| 2026-05-04 02:00 | -28.24874 | 135.69797 | 30228 ft | 373 kts | 335° |
| 2026-05-04 02:01 | -28.19930 | 135.67958 | 30225 ft | 373 kts | 335° |
| 2026-05-04 02:01 | -28.14991 | 135.66119 | 30223 ft | 373 kts | 335° |
| 2026-05-04 02:02 | -28.10090 | 135.64293 | 30224 ft | 373 kts | 335° |
| 2026-05-04 02:02 | -28.05163 | 135.62448 | 30217 ft | 372 kts | 335° |
| 2026-05-04 02:03 | -28.00247 | 135.60605 | 30220 ft | 372 kts | 336° |
| 2026-05-04 02:03 | -27.95317 | 135.58791 | 30221 ft | 372 kts | 336° |
| 2026-05-04 02:04 | -27.90386 | 135.56978 | 30217 ft | 372 kts | 336° |
| 2026-05-04 02:04 | -27.85454 | 135.55163 | 30219 ft | 372 kts | 336° |
| 2026-05-04 02:05 | -27.81359 | 135.53665 | 30212 ft | 372 kts | 336° |
| 2026-05-04 02:05 | -27.75630 | 135.51566 | 30218 ft | 372 kts | 336° |
| 2026-05-04 02:06 | -27.70707 | 135.49761 | 30222 ft | 372 kts | 336° |
| 2026-05-04 02:06 | -27.66583 | 135.48249 | 30222 ft | 372 kts | 336° |
| 2026-05-04 02:07 | -27.61660 | 135.46443 | 30218 ft | 372 kts | 336° |
| 2026-05-04 02:07 | -27.56770 | 135.44652 | 30210 ft | 372 kts | 336° |
| 2026-05-04 02:08 | -27.51905 | 135.42716 | 30210 ft | 370 kts | 333° |
| 2026-05-04 02:08 | -27.47339 | 135.40685 | 30219 ft | 369 kts | 333° |
| 2026-05-04 02:09 | -27.42569 | 135.38589 | 30215 ft | 370 kts | 333° |